Terminal Aerodrome Forecast
Issued by NWS Hastings, NE

Home | Current Version | Previous Version | Text Only | Print | Product List | Glossary On
Versions: 1 2 3 4 5 6 7 8 9 10 11 12 13 14 15 16 17 18 19 20 21 22 23 24 25 26 27 28
000
FTUS43 KGID 211720
TAFGRI
TAF
KGRI 211720Z 2118/2218 18013KT P6SM SKC
     FM212300 15010KT P6SM SKC
     FM220500 15011KT P6SM SCT012 SCT060
     FM220900 16011KT 5SM BR SCT006 BKN012
     FM221700 18015G20KT P6SM VCSH SCT012 OVC040=

USA.gov is the U.S. government's official web portal to all federal, state and local government web resources and services.